Saint Augusta, MN

1:21 AM CST on November 28, 2014 (GMT -0600)
Southwest St Cloud | Change Station
CLOSE
Current Station
Personal Weather Station
Location: St Cloud, MN
Elevation: 1080 ft
Nearby Weather Stations

Elev 1080 ft 45.54 °N, 94.19 °W | Updated 14 seconds ago

Snow
Snow
6.3 °F
Feels Like 0 °F
N
3.2
Wind Variable Wind from WSW
Gusts 3.2 mph

Today
High -- | Low -- °F
--% Chance of Precip.
Yesterday
High -- | Low -- °F
Precip. -- in
7:33 AM 4:36 PM
Waxing Crescent, 37% visible
Pressure 30.16 in
Visibility 1.2 miles
Clouds Overcast 1600 ft
Windchill 0 °F
Dew Point -24 °F
Humidity 22%
Rainfall 0.00 in
Snow Depth Not available.
UV 0 out of 12
Pollen .10 out of 12
Air Quality Not available.
Flu Activity Not available.
SPECI KSTC 280716Z AUTO 11008KT 1 1/4SM -SN OVC016 M14/M17 A3016 RMK AO2 P0001 T11391167

More Conditions Fewer Conditions

Pressure 30.16 in
Visibility 1.2 miles
Clouds Overcast 1600 ft
Windchill 0 °F
Dew Point -24 °F
Humidity 22%
Rainfall 0.00 in
Snow Depth Not available.
UV 0 out of 12
Pollen .10 out of 12
Air Quality Not available.
Flu Activity Not available.
SPECI KSTC 280716Z AUTO 11008KT 1 1/4SM -SN OVC016 M14/M17 A3016 RMK AO2 P0001 T11391167

More Conditions Fewer Conditions

10-Day Weather Forecast

Almanac

Astronomy

Nov. 28, 2014 Rise Set
Actual Time
Civil Twilight
Nautical Twilight
Astronomical Twilight
Moon
Length of Visible Light
Length of Day
Tomorrow will be .
, % of the Moon is Illuminated

Today's Extremes

State Highs State Lows

Community

WunderPhotos

Upload Photos

1,774,190 photos uploaded!

WunderBlogs® & News

Nearby

Air Quality

  Air Quality AQ Index Pollutant
Not available.

Snow Depth

Station Depth Elevation

Earthquake Activity

City Distance Mag. Time & Date
Minimum magnitude displayed is 2.5.

Coastal Water Temperatures

Place Temperature

Nearby Weather Stations